createdAt,value
2022-08-20T00:00:51.735Z,961.94
2022-08-20T00:01:51.825Z,961.97
2022-08-20T00:02:51.851Z,961.95
2022-08-20T00:03:53.220Z,961.93
2022-08-20T00:04:51.853Z,961.97
2022-08-20T00:05:51.858Z,961.88
2022-08-20T00:06:51.882Z,961.89
2022-08-20T00:07:51.941Z,961.88
2022-08-20T00:08:51.862Z,961.89
2022-08-20T00:09:51.827Z,961.87
2022-08-20T00:10:55.493Z,961.91
2022-08-20T00:11:51.989Z,961.89
2022-08-20T00:12:51.827Z,961.88
2022-08-20T00:13:51.768Z,961.9
2022-08-20T00:14:51.862Z,961.88
2022-08-20T00:15:51.831Z,961.89
2022-08-20T00:18:51.838Z,961.86
2022-08-20T00:21:51.774Z,961.88
2022-08-20T00:22:51.912Z,961.91
2022-08-20T00:23:51.877Z,961.93
2022-08-20T00:24:51.790Z,961.92
2022-08-20T00:25:51.911Z,961.93
2022-08-20T00:26:52.400Z,961.91
2022-08-20T00:27:51.835Z,961.94
2022-08-20T00:28:51.810Z,961.96
2022-08-20T00:29:51.893Z,961.94
2022-08-20T00:30:51.816Z,961.97
2022-08-20T00:31:51.797Z,961.98
2022-08-20T00:32:51.880Z,961.95
2022-08-20T00:33:51.955Z,961.96
2022-08-20T00:34:51.922Z,961.93
2022-08-20T00:35:51.811Z,961.95
2022-08-20T00:37:51.942Z,961.91
2022-08-20T00:38:51.818Z,961.96
2022-08-20T00:39:52.039Z,961.94
2022-08-20T00:40:51.827Z,961.97
2022-08-20T00:41:51.901Z,961.96
2022-08-20T00:42:51.824Z,961.97
2022-08-20T00:43:51.933Z,962.02
2022-08-20T00:44:51.903Z,961.99
2022-08-20T00:45:51.842Z,962
2022-08-20T00:46:51.833Z,962.03
2022-08-20T00:47:51.947Z,961.99
2022-08-20T00:48:51.996Z,961.98
2022-08-20T00:49:51.847Z,961.99
2022-08-20T00:51:51.915Z,962.02
2022-08-20T00:52:51.852Z,962.03
2022-08-20T00:53:52.028Z,962.05
2022-08-20T00:54:51.862Z,962.02
2022-08-20T00:55:51.959Z,962.05
2022-08-20T00:56:51.921Z,962.01
2022-08-20T00:58:51.957Z,962.05
2022-08-20T00:59:51.878Z,962.03
2022-08-20T01:00:51.880Z,962.04
2022-08-20T01:01:54.973Z,962.02
2022-08-20T01:03:52.003Z,962.04
2022-08-20T01:04:51.885Z,962.03
2022-08-20T01:05:51.952Z,962.05
2022-08-20T01:06:51.888Z,962.03
2022-08-20T01:07:51.976Z,962.05
2022-08-20T01:08:52.153Z,962.06
2022-08-20T01:09:57.517Z,962.04
2022-08-20T01:10:51.994Z,962.07
2022-08-20T01:11:51.901Z,962.11
2022-08-20T01:12:55.632Z,962.08
2022-08-20T01:14:52.055Z,962.04
2022-08-20T01:15:52.028Z,962.03
2022-08-20T01:16:51.914Z,962.04
2022-08-20T01:17:53.337Z,962.05
2022-08-20T01:18:52.106Z,962.02
2022-08-20T01:19:51.996Z,962.06
2022-08-20T01:20:51.923Z,962.01
2022-08-20T01:22:51.996Z,962.05
2022-08-20T01:23:53.370Z,962.04
2022-08-20T01:24:51.933Z,962.06
2022-08-20T01:26:52.082Z,962.02
2022-08-20T01:27:55.332Z,962.06
2022-08-20T01:28:52.212Z,962.04
2022-08-20T01:29:52.074Z,962.05
2022-08-20T01:30:51.958Z,962.06
2022-08-20T01:31:52.130Z,962.08
2022-08-20T01:32:52.020Z,962.03
2022-08-20T01:33:51.960Z,962.04
2022-08-20T01:34:51.954Z,962.05
2022-08-20T01:35:51.968Z,962.06
2022-08-20T01:36:52.044Z,962.05
2022-08-20T01:37:52.166Z,962.08
2022-08-20T01:39:52.015Z,962.09
2022-08-20T01:40:52.122Z,962.07
2022-08-20T01:41:52.090Z,962.12
2022-08-20T01:43:52.121Z,962.13
2022-08-20T01:44:52.254Z,962.11
2022-08-20T01:45:52.175Z,962.13
2022-08-20T01:46:51.981Z,962.16
2022-08-20T01:47:52.101Z,962.17
2022-08-20T01:48:51.992Z,962.2
2022-08-20T01:49:52.034Z,962.25
2022-08-20T01:50:51.995Z,962.28
2022-08-20T01:51:52.082Z,962.27
2022-08-20T01:52:52.046Z,962.28
2022-08-20T01:53:52.113Z,962.26
2022-08-20T01:54:52.006Z,962.24
2022-08-20T01:55:52.019Z,962.27
2022-08-20T01:57:52.032Z,962.28
2022-08-20T01:58:55.865Z,962.32
2022-08-20T01:59:52.118Z,962.31
2022-08-20T02:00:52.088Z,962.29
2022-08-20T02:01:52.204Z,962.33
2022-08-20T02:02:52.120Z,962.28
2022-08-20T02:03:52.024Z,962.29
2022-08-20T02:04:53.112Z,962.3
2022-08-20T02:05:52.118Z,962.29
2022-08-20T02:06:56.006Z,962.3
2022-08-20T02:07:52.403Z,962.31
2022-08-20T02:09:52.199Z,962.29
2022-08-20T02:10:52.164Z,962.31
2022-08-20T02:11:52.058Z,962.28
2022-08-20T02:12:52.054Z,962.3
2022-08-20T02:13:52.369Z,962.31
2022-08-20T02:14:52.072Z,962.32
2022-08-20T02:15:52.202Z,962.31
2022-08-20T02:17:52.134Z,962.28
2022-08-20T02:18:52.067Z,962.27
2022-08-20T02:19:52.181Z,962.3
2022-08-20T02:21:52.072Z,962.28
2022-08-20T02:23:52.074Z,962.26
2022-08-20T02:24:52.218Z,962.29
2022-08-20T02:25:52.193Z,962.25
2022-08-20T02:26:52.161Z,962.26
2022-08-20T02:27:52.179Z,962.2
2022-08-20T02:28:52.186Z,962.21
2022-08-20T02:29:52.169Z,962.15
2022-08-20T02:30:52.124Z,962.13
2022-08-20T02:32:24.050Z,962.14
2022-08-20T02:32:52.167Z,962.13
2022-08-20T02:34:14.984Z,962.1
2022-08-20T02:34:52.217Z,962.08
2022-08-20T02:35:52.161Z,962.06
2022-08-20T02:36:52.229Z,962.08
2022-08-20T02:37:52.280Z,962.06
2022-08-20T02:39:52.214Z,962.05
2022-08-20T02:40:52.117Z,962.03
2022-08-20T02:41:52.177Z,962.05
2022-08-20T02:42:52.146Z,962.03
2022-08-20T02:43:52.228Z,962.01
2022-08-20T02:44:52.285Z,961.99
2022-08-20T02:45:52.143Z,962
2022-08-20T02:46:52.238Z,962.01
2022-08-20T02:47:52.216Z,961.99
2022-08-20T02:48:52.255Z,961.96
2022-08-20T02:49:52.137Z,961.93
2022-08-20T02:50:52.207Z,961.94
2022-08-20T02:52:52.349Z,961.95
2022-08-20T02:54:52.262Z,961.92
2022-08-20T02:55:52.235Z,961.94
2022-08-20T02:56:52.306Z,961.95
2022-08-20T02:57:52.198Z,961.94
2022-08-20T02:58:52.357Z,961.93
2022-08-20T02:59:52.309Z,961.96
2022-08-20T03:00:52.271Z,961.91
2022-08-20T03:02:52.205Z,961.87
2022-08-20T03:03:52.178Z,961.9
2022-08-20T03:04:52.243Z,961.88
2022-08-20T03:05:52.311Z,961.92
2022-08-20T03:06:52.289Z,961.9
2022-08-20T03:07:52.291Z,961.96
2022-08-20T03:08:52.201Z,961.95
2022-08-20T03:09:52.198Z,961.97
2022-08-20T03:10:52.263Z,961.93
2022-08-20T03:12:52.291Z,961.91
2022-08-20T03:13:52.257Z,961.96
2022-08-20T03:14:52.337Z,961.94
2022-08-20T03:15:55.335Z,961.96
2022-08-20T03:16:52.264Z,961.91
2022-08-20T03:17:52.260Z,961.93
2022-08-20T03:18:52.384Z,961.96
2022-08-20T03:19:52.358Z,961.92
2022-08-20T03:20:52.391Z,961.91
2022-08-20T03:21:52.475Z,961.9
2022-08-20T03:22:52.373Z,961.95
2022-08-20T03:23:52.339Z,961.91
2022-08-20T03:25:52.363Z,961.87
2022-08-20T03:26:52.341Z,961.88
2022-08-20T03:27:54.073Z,961.91
2022-08-20T03:28:52.271Z,961.88
2022-08-20T03:29:52.349Z,961.89
2022-08-20T03:30:52.301Z,961.85
2022-08-20T03:31:52.276Z,961.86
2022-08-20T03:32:52.348Z,961.81
2022-08-20T03:33:53.259Z,961.84
2022-08-20T03:34:52.374Z,961.8
2022-08-20T03:35:52.355Z,961.76
2022-08-20T03:36:52.317Z,961.82
2022-08-20T03:37:52.389Z,961.8
2022-08-20T03:38:52.487Z,961.81
2022-08-20T03:39:52.366Z,961.77
2022-08-20T03:40:52.394Z,961.78
2022-08-20T03:41:52.359Z,961.82
2022-08-20T03:42:52.353Z,961.81
2022-08-20T03:44:52.702Z,961.83
2022-08-20T03:45:52.285Z,961.84
2022-08-20T03:46:52.282Z,961.83
2022-08-20T03:47:52.429Z,961.87
2022-08-20T03:48:58.726Z,961.85
2022-08-20T03:49:52.297Z,961.86
2022-08-20T03:50:52.301Z,961.85
2022-08-20T03:51:57.199Z,961.88
2022-08-20T03:52:52.812Z,961.89
2022-08-20T03:54:53.737Z,961.88
2022-08-20T03:57:52.499Z,961.86
2022-08-20T03:58:52.428Z,961.88
2022-08-20T03:59:55.019Z,961.91
2022-08-20T04:00:52.453Z,961.93
2022-08-20T04:01:52.436Z,961.94
2022-08-20T04:02:52.394Z,961.97
2022-08-20T04:03:55.161Z,961.98
2022-08-20T04:04:52.519Z,962.02
2022-08-20T04:07:52.399Z,962.03
2022-08-20T04:08:52.581Z,962.01
2022-08-20T04:09:52.325Z,961.99
2022-08-20T04:10:52.344Z,961.97
2022-08-20T04:11:52.342Z,961.99
2022-08-20T04:13:52.616Z,962.02
2022-08-20T04:14:52.412Z,962.03
2022-08-20T04:15:52.481Z,961.97
2022-08-20T04:16:52.439Z,962.05
2022-08-20T04:17:52.505Z,962.03
2022-08-20T04:18:56.281Z,962.08
2022-08-20T04:19:52.450Z,962.06
2022-08-20T04:20:52.518Z,962.07
2022-08-20T04:21:52.371Z,962.09
2022-08-20T04:22:58.893Z,962.07
2022-08-20T04:23:52.524Z,962.08
2022-08-20T04:26:52.524Z,962.07
2022-08-20T04:27:52.567Z,962.05
2022-08-20T04:28:52.456Z,962.06
2022-08-20T04:30:52.500Z,962.05
2022-08-20T04:32:52.397Z,962.06
2022-08-20T04:33:52.501Z,962.04
2022-08-20T04:34:52.471Z,962.06
2022-08-20T04:35:52.537Z,962.1
2022-08-20T04:36:52.504Z,962.09
2022-08-20T04:37:52.579Z,962.12
2022-08-20T04:38:52.534Z,962.09
2022-08-20T04:39:52.540Z,962.13
2022-08-20T04:41:52.544Z,962.14
2022-08-20T04:42:53.194Z,962.12
2022-08-20T04:43:52.608Z,962.13
2022-08-20T04:44:52.426Z,962.12
2022-08-20T04:45:52.521Z,962.16
2022-08-20T04:47:52.492Z,962.15
2022-08-20T04:48:52.522Z,962.14
2022-08-20T04:49:52.595Z,962.15
2022-08-20T04:50:52.559Z,962.19
2022-08-20T04:52:52.602Z,962.2
2022-08-20T04:54:52.531Z,962.16
2022-08-20T04:55:52.599Z,962.19
2022-08-20T04:56:52.565Z,962.18
2022-08-20T04:57:52.583Z,962.17
2022-08-20T04:58:52.570Z,962.14
2022-08-20T04:59:54.659Z,962.16
2022-08-20T05:00:52.481Z,962.14
2022-08-20T05:01:52.604Z,962.17
2022-08-20T05:02:52.576Z,962.16
2022-08-20T05:03:52.538Z,962.17
2022-08-20T05:04:52.503Z,962.16
2022-08-20T05:06:52.548Z,962.18
2022-08-20T05:07:52.611Z,962.16
2022-08-20T05:08:52.579Z,962.17
2022-08-20T05:09:52.542Z,962.13
2022-08-20T05:10:54.081Z,962.16
2022-08-20T05:11:52.586Z,962.2
2022-08-20T05:12:56.710Z,962.16
2022-08-20T05:13:52.759Z,962.2
2022-08-20T05:14:52.587Z,962.18
2022-08-20T05:15:52.650Z,962.22
2022-08-20T05:16:52.502Z,962.21
2022-08-20T05:17:52.498Z,962.25
2022-08-20T05:18:52.974Z,962.24
2022-08-20T05:20:52.600Z,962.28
2022-08-20T05:21:52.523Z,962.25
2022-08-20T05:22:52.631Z,962.3
2022-08-20T05:25:52.639Z,962.27
2022-08-20T05:26:52.603Z,962.28
2022-08-20T05:27:52.521Z,962.29
2022-08-20T05:28:57.356Z,962.33
2022-08-20T05:29:52.616Z,962.34
2022-08-20T05:30:52.597Z,962.39
2022-08-20T05:31:52.529Z,962.41
2022-08-20T05:33:52.671Z,962.42
2022-08-20T05:34:52.534Z,962.44
2022-08-20T05:35:52.626Z,962.45
2022-08-20T05:36:52.689Z,962.46
2022-08-20T05:37:52.662Z,962.47
2022-08-20T05:38:52.623Z,962.51
2022-08-20T05:39:52.626Z,962.56
2022-08-20T05:40:52.658Z,962.54
2022-08-20T05:41:52.623Z,962.56
2022-08-20T05:42:52.598Z,962.58
2022-08-20T05:43:52.669Z,962.56
2022-08-20T05:44:52.627Z,962.61
2022-08-20T05:45:56.457Z,962.62
2022-08-20T05:47:53.442Z,962.61
2022-08-20T05:48:52.595Z,962.63
2022-08-20T05:49:52.665Z,962.64
2022-08-20T05:51:52.585Z,962.6
2022-08-20T05:52:52.687Z,962.62
2022-08-20T05:53:52.747Z,962.64
2022-08-20T05:54:52.705Z,962.63
2022-08-20T05:55:53.052Z,962.65
2022-08-20T05:57:52.609Z,962.63
2022-08-20T05:58:52.679Z,962.66
2022-08-20T05:59:52.746Z,962.65
2022-08-20T06:00:52.776Z,962.66
2022-08-20T06:01:52.695Z,962.67
2022-08-20T06:02:52.751Z,962.66
2022-08-20T06:03:52.725Z,962.65
2022-08-20T06:04:56.008Z,962.62
2022-08-20T06:05:52.625Z,962.58
2022-08-20T06:07:52.773Z,962.54
2022-08-20T06:08:52.772Z,962.55
2022-08-20T06:09:52.745Z,962.56
2022-08-20T06:10:52.699Z,962.59
2022-08-20T06:11:52.681Z,962.57
2022-08-20T06:12:52.883Z,962.62
2022-08-20T06:13:52.826Z,962.63
2022-08-20T06:15:52.781Z,962.64
2022-08-20T06:16:57.503Z,962.67
2022-08-20T06:17:52.927Z,962.65
2022-08-20T06:18:52.885Z,962.67
2022-08-20T06:19:52.835Z,962.65
2022-08-20T06:20:52.778Z,962.69
2022-08-20T06:21:52.749Z,962.67
2022-08-20T06:22:52.711Z,962.65
2022-08-20T06:23:56.660Z,962.69
2022-08-20T06:27:52.823Z,962.67
2022-08-20T06:28:54.049Z,962.65
2022-08-20T06:29:52.783Z,962.63
2022-08-20T06:30:52.759Z,962.65
2022-08-20T06:31:52.828Z,962.63
2022-08-20T06:32:52.799Z,962.6
2022-08-20T06:33:52.773Z,962.63
2022-08-20T06:34:52.732Z,962.62
2022-08-20T06:36:52.694Z,962.59
2022-08-20T06:37:52.873Z,962.61
2022-08-20T06:38:52.801Z,962.66
2022-08-20T06:39:52.784Z,962.6
2022-08-20T06:41:53.045Z,962.67
2022-08-20T06:42:52.784Z,962.66
2022-08-20T06:43:52.716Z,962.67
2022-08-20T06:45:52.776Z,962.72
2022-08-20T06:46:52.710Z,962.7
2022-08-20T06:47:52.854Z,962.68
2022-08-20T06:48:52.801Z,962.73
2022-08-20T06:49:52.752Z,962.66
2022-08-20T06:50:52.827Z,962.73
2022-08-20T06:51:52.947Z,962.76
2022-08-20T06:52:53.369Z,962.77
2022-08-20T06:53:52.831Z,962.82
2022-08-20T06:54:52.731Z,962.74
2022-08-20T06:55:52.745Z,962.83
2022-08-20T06:56:52.840Z,962.86
2022-08-20T06:57:52.814Z,962.89
2022-08-20T06:58:52.875Z,962.87
2022-08-20T06:59:53.993Z,962.93
2022-08-20T07:02:52.956Z,962.87
2022-08-20T07:03:55.226Z,962.9
2022-08-20T07:04:52.881Z,962.91
2022-08-20T07:05:52.845Z,963.08
2022-08-20T07:06:52.812Z,963.1
2022-08-20T07:07:52.878Z,963.07
2022-08-20T07:08:52.853Z,963.04
2022-08-20T07:09:52.776Z,962.97
2022-08-20T07:10:52.990Z,963.03
2022-08-20T07:11:52.784Z,962.99
2022-08-20T07:12:52.863Z,962.95
2022-08-20T07:13:52.888Z,962.91
2022-08-20T07:14:52.854Z,962.88
2022-08-20T07:16:52.904Z,962.82
2022-08-20T07:17:54.716Z,962.81
2022-08-20T07:18:52.930Z,962.78
2022-08-20T07:19:52.893Z,962.74
2022-08-20T07:21:52.805Z,962.7
2022-08-20T07:22:52.936Z,962.68
2022-08-20T07:23:52.977Z,962.7
2022-08-20T07:24:52.814Z,962.68
2022-08-20T07:25:52.904Z,962.66
2022-08-20T07:26:54.089Z,962.67
2022-08-20T07:27:52.941Z,962.69
2022-08-20T07:28:52.911Z,962.7
2022-08-20T07:29:53.075Z,962.73
2022-08-20T07:30:56.305Z,962.74
2022-08-20T07:31:52.902Z,962.75
2022-08-20T07:32:52.953Z,962.74
2022-08-20T07:33:52.946Z,962.75
2022-08-20T07:34:52.830Z,962.77
2022-08-20T07:35:52.978Z,962.75
2022-08-20T07:36:52.957Z,962.77
2022-08-20T07:37:52.921Z,962.76
2022-08-20T07:38:52.888Z,962.73
2022-08-20T07:39:53.086Z,962.72
2022-08-20T07:40:52.926Z,962.73
2022-08-20T07:43:53.025Z,962.71
2022-08-20T07:44:52.934Z,962.69
2022-08-20T07:45:52.968Z,962.73
2022-08-20T07:46:52.932Z,962.7
2022-08-20T07:48:52.983Z,962.72
2022-08-20T07:49:53.068Z,962.75
2022-08-20T07:52:52.941Z,962.82
2022-08-20T07:53:52.906Z,962.81
2022-08-20T07:54:52.973Z,962.79
2022-08-20T07:55:57.232Z,962.8
2022-08-20T07:56:53.230Z,962.81
2022-08-20T07:57:52.892Z,962.8
2022-08-20T07:58:52.956Z,962.78
2022-08-20T07:59:53.012Z,962.79
2022-08-20T08:00:52.927Z,962.78
2022-08-20T08:01:52.909Z,962.75
2022-08-20T08:02:53.094Z,962.76
2022-08-20T08:03:52.983Z,962.79
2022-08-20T08:04:52.964Z,962.77
2022-08-20T08:05:52.910Z,962.82
2022-08-20T08:06:52.917Z,962.8
2022-08-20T08:07:52.922Z,962.76
2022-08-20T08:08:53.037Z,962.78
2022-08-20T08:09:52.930Z,962.75
2022-08-20T08:10:52.979Z,962.7
2022-08-20T08:11:53.025Z,962.72
2022-08-20T08:12:53.006Z,962.7
2022-08-20T08:13:52.967Z,962.74
2022-08-20T08:14:53.035Z,962.72
2022-08-20T08:15:52.937Z,962.68
2022-08-20T08:17:53.041Z,962.69
2022-08-20T08:18:53.011Z,962.7
2022-08-20T08:20:52.953Z,962.71
2022-08-20T08:21:52.953Z,962.68
2022-08-20T08:22:53.092Z,962.69
2022-08-20T08:25:53.027Z,962.71
2022-08-20T08:26:52.993Z,962.74
2022-08-20T08:27:53.028Z,962.71
2022-08-20T08:28:52.986Z,962.74
2022-08-20T08:29:53.057Z,962.75
2022-08-20T08:30:53.036Z,962.76
2022-08-20T08:31:52.983Z,962.74
2022-08-20T08:32:53.097Z,962.79
2022-08-20T08:33:53.034Z,962.76
2022-08-20T08:34:53.101Z,962.74
2022-08-20T08:35:53.074Z,962.78
2022-08-20T08:37:53.105Z,962.76
2022-08-20T08:39:53.097Z,962.75
2022-08-20T08:40:53.866Z,962.7
2022-08-20T08:41:53.506Z,962.69
2022-08-20T08:42:53.064Z,962.71
2022-08-20T08:43:53.013Z,962.65
2022-08-20T08:44:53.087Z,962.66
2022-08-20T08:45:53.045Z,962.65
2022-08-20T08:46:53.015Z,962.67
2022-08-20T08:47:53.093Z,962.71
2022-08-20T08:48:53.154Z,962.7
2022-08-20T08:49:53.125Z,962.69
2022-08-20T08:50:54.593Z,962.71
2022-08-20T08:51:53.205Z,962.73
2022-08-20T08:52:53.127Z,962.69
2022-08-20T08:53:53.029Z,962.7
2022-08-20T08:54:53.045Z,962.69
2022-08-20T08:55:53.130Z,962.68
2022-08-20T08:56:53.127Z,962.69
2022-08-20T08:58:53.041Z,962.72
2022-08-20T09:00:03.389Z,962.74
2022-08-20T09:00:56.677Z,962.73
2022-08-20T09:01:56.502Z,962.7
2022-08-20T09:02:53.250Z,962.71
2022-08-20T09:03:53.169Z,962.7
2022-08-20T09:05:53.120Z,962.67
2022-08-20T09:06:53.068Z,962.69
2022-08-20T09:08:53.113Z,962.68
2022-08-20T09:09:53.180Z,962.7
2022-08-20T09:10:53.240Z,962.73
2022-08-20T09:11:53.092Z,962.7
2022-08-20T09:12:53.186Z,962.71
2022-08-20T09:13:53.155Z,962.66
2022-08-20T09:14:53.223Z,962.69
2022-08-20T09:15:53.199Z,962.71
2022-08-20T09:16:53.630Z,962.67
2022-08-20T09:18:53.093Z,962.63
2022-08-20T09:19:53.090Z,962.68
2022-08-20T09:20:53.179Z,962.65
2022-08-20T09:21:53.108Z,962.67
2022-08-20T09:22:53.219Z,962.66
2022-08-20T09:23:53.111Z,962.69
2022-08-20T09:24:53.194Z,962.66
2022-08-20T09:25:53.173Z,962.72
2022-08-20T09:26:53.249Z,962.7
2022-08-20T09:27:53.126Z,962.74
2022-08-20T09:30:53.125Z,962.72
2022-08-20T09:31:53.293Z,962.73
2022-08-20T09:32:53.307Z,962.72
2022-08-20T09:33:53.144Z,962.73
2022-08-20T09:34:53.216Z,962.72
2022-08-20T09:35:53.252Z,962.7
2022-08-20T09:36:53.220Z,962.72
2022-08-20T09:37:53.299Z,962.73
2022-08-20T09:38:53.148Z,962.75
2022-08-20T09:39:53.242Z,962.72
2022-08-20T09:40:53.197Z,962.73
2022-08-20T09:41:53.154Z,962.74
2022-08-20T09:42:53.185Z,962.73
2022-08-20T09:43:53.201Z,962.74
2022-08-20T09:44:53.264Z,962.73
2022-08-20T09:45:53.330Z,962.76
2022-08-20T09:46:53.218Z,962.74
2022-08-20T09:47:55.297Z,962.73
2022-08-20T09:49:53.439Z,962.76
2022-08-20T09:50:53.274Z,962.79
2022-08-20T09:51:53.344Z,962.8
2022-08-20T09:52:53.692Z,962.77
2022-08-20T09:53:53.187Z,962.81
2022-08-20T09:54:53.354Z,962.79
2022-08-20T09:55:53.190Z,962.8
2022-08-20T09:58:53.216Z,962.82
2022-08-20T09:59:53.202Z,962.86
2022-08-20T10:00:53.351Z,962.83
2022-08-20T10:01:53.290Z,962.87
2022-08-20T10:05:53.292Z,962.88
2022-08-20T10:06:53.257Z,962.89
2022-08-20T10:08:53.293Z,962.82
2022-08-20T10:09:53.229Z,962.84
2022-08-20T10:11:53.236Z,962.87
2022-08-20T10:12:54.974Z,962.84
2022-08-20T10:14:53.479Z,962.85
2022-08-20T10:15:53.294Z,962.82
2022-08-20T10:16:53.341Z,962.81
2022-08-20T10:17:53.358Z,962.82
2022-08-20T10:18:53.293Z,962.85
2022-08-20T10:19:53.350Z,962.82
2022-08-20T10:20:53.314Z,962.78
2022-08-20T10:21:53.315Z,962.8
2022-08-20T10:23:53.423Z,962.79
2022-08-20T10:25:53.266Z,962.77
2022-08-20T10:26:53.312Z,962.78
2022-08-20T10:27:53.281Z,962.81
2022-08-20T10:28:53.363Z,962.83
2022-08-20T10:29:53.267Z,962.81
2022-08-20T10:30:53.401Z,962.83
2022-08-20T10:31:53.357Z,962.81
2022-08-20T10:32:53.336Z,962.87
2022-08-20T10:34:53.295Z,962.89
2022-08-20T10:35:56.808Z,962.87
2022-08-20T10:36:53.416Z,962.86
2022-08-20T10:37:53.313Z,962.85
2022-08-20T10:38:53.337Z,962.88
2022-08-20T10:40:53.303Z,962.86
2022-08-20T10:41:53.376Z,962.89
2022-08-20T10:42:53.313Z,962.9
2022-08-20T10:43:53.321Z,962.92
2022-08-20T10:44:53.348Z,962.93
2022-08-20T10:45:53.315Z,962.92
2022-08-20T10:46:53.593Z,962.89
2022-08-20T10:48:53.328Z,962.88
2022-08-20T10:49:53.391Z,962.84
2022-08-20T10:50:53.395Z,962.86
2022-08-20T10:51:53.330Z,962.88
2022-08-20T10:52:53.337Z,962.86
2022-08-20T10:54:53.334Z,962.87
2022-08-20T10:55:53.429Z,962.86
2022-08-20T10:56:53.453Z,962.88
2022-08-20T10:57:53.442Z,962.87
2022-08-20T10:58:53.352Z,962.86
2022-08-20T10:59:53.473Z,962.87
2022-08-20T11:00:53.358Z,962.9
2022-08-20T11:02:53.361Z,962.91
2022-08-20T11:03:53.371Z,962.94
2022-08-20T11:04:53.373Z,962.96
2022-08-20T11:05:53.481Z,962.97
2022-08-20T11:07:55.829Z,962.95
2022-08-20T11:08:53.575Z,962.93
2022-08-20T11:09:53.575Z,962.91
2022-08-20T11:10:53.462Z,962.87
2022-08-20T11:11:53.486Z,962.9
2022-08-20T11:12:53.382Z,962.86
2022-08-20T11:14:53.492Z,962.88
2022-08-20T11:15:53.561Z,962.84
2022-08-20T11:16:53.457Z,962.83
2022-08-20T11:18:53.503Z,962.78
2022-08-20T11:19:53.530Z,962.82
2022-08-20T11:20:53.497Z,962.81
2022-08-20T11:21:53.492Z,962.82
2022-08-20T11:23:53.505Z,962.84
2022-08-20T11:24:53.464Z,962.85
2022-08-20T11:25:53.542Z,962.82
2022-08-20T11:26:53.507Z,962.81
2022-08-20T11:27:53.570Z,962.83
2022-08-20T11:29:53.509Z,962.78
2022-08-20T11:30:53.473Z,962.77
2022-08-20T11:31:53.555Z,962.78
2022-08-20T11:32:53.439Z,962.79
2022-08-20T11:33:53.588Z,962.8
2022-08-20T11:34:53.552Z,962.79
2022-08-20T11:35:53.623Z,962.84
2022-08-20T11:36:53.493Z,962.83
2022-08-20T11:37:53.550Z,962.86
2022-08-20T11:38:53.463Z,962.8
2022-08-20T11:39:53.546Z,962.77
2022-08-20T11:41:54.727Z,962.73
2022-08-20T11:43:13.469Z,962.76
2022-08-20T11:44:10.706Z,962.77
2022-08-20T11:44:53.588Z,962.74
2022-08-20T11:45:53.468Z,962.76
2022-08-20T11:48:53.589Z,962.73
2022-08-20T11:49:53.494Z,962.74
2022-08-20T11:51:53.509Z,962.71
2022-08-20T11:52:53.489Z,962.7
2022-08-20T11:53:53.492Z,962.68
2022-08-20T11:58:53.593Z,962.66
2022-08-20T12:00:53.630Z,962.64
2022-08-20T12:02:02.662Z,962.62
2022-08-20T12:02:53.673Z,962.63
2022-08-20T12:03:53.516Z,962.62
2022-08-20T12:07:53.606Z,962.64
2022-08-20T12:09:53.741Z,962.61
2022-08-20T12:10:53.604Z,962.59
2022-08-20T12:12:53.532Z,962.6
2022-08-20T12:13:53.612Z,962.56
2022-08-20T12:14:53.578Z,962.54
2022-08-20T12:15:53.667Z,962.56
2022-08-20T12:16:53.613Z,962.55
2022-08-20T12:17:53.682Z,962.52
2022-08-20T12:18:53.745Z,962.56
2022-08-20T12:19:53.613Z,962.59
2022-08-20T12:21:53.567Z,962.6
2022-08-20T12:22:53.644Z,962.59
2022-08-20T12:23:53.626Z,962.58
2022-08-20T12:24:53.655Z,962.56
2022-08-20T12:25:53.623Z,962.58
2022-08-20T12:27:53.657Z,962.57
2022-08-20T12:28:53.647Z,962.58
2022-08-20T12:29:53.692Z,962.6
2022-08-20T12:30:53.570Z,962.62
2022-08-20T12:31:53.654Z,962.64
2022-08-20T12:33:53.673Z,962.6
2022-08-20T12:34:53.630Z,962.58
2022-08-20T12:35:53.711Z,962.51
2022-08-20T12:36:53.677Z,962.49
2022-08-20T12:37:53.639Z,962.42
2022-08-20T12:38:53.712Z,962.36
2022-08-20T12:39:53.741Z,962.33
2022-08-20T12:40:53.646Z,962.32
2022-08-20T12:41:53.708Z,962.31
2022-08-20T12:42:53.680Z,962.28
2022-08-20T12:43:54.137Z,962.29
2022-08-20T12:44:53.715Z,962.25
2022-08-20T12:45:53.616Z,962.28
2022-08-20T12:46:53.621Z,962.21
2022-08-20T12:47:53.726Z,962.2
2022-08-20T12:48:53.680Z,962.24
2022-08-20T12:49:53.669Z,962.22
2022-08-20T12:50:53.727Z,962.26
2022-08-20T12:52:53.635Z,962.2
2022-08-20T12:53:53.735Z,962.22
2022-08-20T12:55:53.655Z,962.2
2022-08-20T12:56:53.652Z,962.21
2022-08-20T12:57:53.708Z,962.23
2022-08-20T12:58:53.769Z,962.2
2022-08-20T12:59:53.734Z,962.22
2022-08-20T13:00:53.807Z,962.2
2022-08-20T13:02:53.693Z,962.12
2022-08-20T13:03:53.753Z,962.16
2022-08-20T13:04:53.799Z,962.11
2022-08-20T13:06:53.854Z,962.16
2022-08-20T13:07:53.681Z,962.13
2022-08-20T13:08:53.745Z,962.1
2022-08-20T13:09:53.681Z,962.11
2022-08-20T13:10:53.697Z,962.09
2022-08-20T13:11:53.673Z,962.06
2022-08-20T13:12:53.731Z,962.07
2022-08-20T13:13:53.795Z,962.04
2022-08-20T13:14:53.761Z,962.08
2022-08-20T13:15:53.741Z,962.05
2022-08-20T13:17:53.805Z,962.03
2022-08-20T13:18:53.729Z,962.04
2022-08-20T13:19:53.799Z,962.03
2022-08-20T13:20:53.724Z,962.04
2022-08-20T13:21:55.037Z,962.06
2022-08-20T13:22:53.852Z,962.09
2022-08-20T13:23:53.774Z,962.12
2022-08-20T13:24:53.846Z,962.11
2022-08-20T13:25:53.716Z,962.08
2022-08-20T13:26:53.738Z,962.11
2022-08-20T13:28:53.729Z,962.13
2022-08-20T13:29:57.841Z,962.14
2022-08-20T13:30:53.848Z,962.12
2022-08-20T13:31:53.725Z,962.13
2022-08-20T13:32:53.758Z,962.06
2022-08-20T13:33:53.753Z,962.05
2022-08-20T13:35:53.749Z,962.05
2022-08-20T13:37:53.747Z,961.99
2022-08-20T13:38:53.793Z,962
2022-08-20T13:39:53.915Z,961.97
2022-08-20T13:40:53.826Z,962.04
2022-08-20T13:41:53.904Z,962
2022-08-20T13:43:53.932Z,962.02
2022-08-20T13:44:53.902Z,962.04
2022-08-20T13:45:53.869Z,962.06
2022-08-20T13:47:53.852Z,962.03
2022-08-20T13:48:53.868Z,962.05
2022-08-20T13:49:53.794Z,962.06
2022-08-20T13:54:53.793Z,962.03
2022-08-20T13:55:53.864Z,962.07
2022-08-20T13:56:53.821Z,962.05
2022-08-20T13:59:53.915Z,962.04
2022-08-20T14:00:53.947Z,962.07
2022-08-20T14:01:53.951Z,962.09
2022-08-20T14:04:53.867Z,962.07
2022-08-20T14:05:53.945Z,962.06
2022-08-20T14:06:53.894Z,962.09
2022-08-20T14:07:53.835Z,962.13
2022-08-20T14:08:53.838Z,962.16
2022-08-20T14:09:53.900Z,962.13
2022-08-20T14:10:53.836Z,962.14
2022-08-20T14:11:53.999Z,962.17
2022-08-20T14:12:53.976Z,962.16
2022-08-20T14:13:54.011Z,962.15
2022-08-20T14:14:53.842Z,962.17
2022-08-20T14:15:54.009Z,962.13
2022-08-20T14:16:53.875Z,962.12
2022-08-20T14:18:53.923Z,962.08
2022-08-20T14:19:55.834Z,962.03
2022-08-20T14:20:53.863Z,962.04
2022-08-20T14:21:53.865Z,962.01
2022-08-20T14:22:53.873Z,962
2022-08-20T14:24:53.958Z,961.99
2022-08-20T14:25:53.876Z,961.97
2022-08-20T14:26:53.880Z,961.93
2022-08-20T14:28:54.005Z,961.89
2022-08-20T14:29:53.968Z,961.9
2022-08-20T14:30:53.976Z,961.87
2022-08-20T14:31:53.995Z,961.93
2022-08-20T14:32:54.080Z,961.88
2022-08-20T14:33:54.037Z,961.91
2022-08-20T14:34:53.908Z,961.89
2022-08-20T14:35:53.968Z,961.84
2022-08-20T14:36:53.975Z,961.78
2022-08-20T14:37:54.009Z,961.74
2022-08-20T14:38:53.911Z,961.79
2022-08-20T14:41:53.908Z,961.83
2022-08-20T14:42:54.085Z,961.85
2022-08-20T14:43:54.020Z,961.87
2022-08-20T14:44:53.980Z,961.92
2022-08-20T14:45:54.052Z,961.91
2022-08-20T14:46:54.029Z,961.95
2022-08-20T14:47:54.318Z,961.98